Time;durP1;ratioP1;P1;durP2;ratioP2;P2;SDS_P1;SDS_P2;PMS_P1;PMS_P2;Temp;Humidity;BMP_temperature;BMP_pressure;BME280_temperature;BME280_humidity;BME280_pressure;Samples;Min_cycle;Max_cycle;Signal;HPM_P1;HPM_P2
2021/08/21 00:01:05;;;;;;;3.90;3.53;;;18.60;99.90;;;;;;4963844;28;20177;-80
2021/08/21 00:03:31;;;;;;;5.47;3.57;;;18.60;99.90;;;;;;4980462;28;20168;-80
2021/08/21 00:05:56;;;;;;;4.60;3.97;;;18.60;99.90;;;;;;4980586;28;20220;-80
2021/08/21 00:08:22;;;;;;;5.80;3.80;;;18.60;99.90;;;;;;4980719;28;20296;-80
2021/08/21 00:10:48;;;;;;;6.07;3.60;;;18.60;99.90;;;;;;4979642;28;20172;-80
2021/08/21 00:13:13;;;;;;;4.17;3.77;;;18.60;99.90;;;;;;4981082;28;20173;-80
2021/08/21 00:15:39;;;;;;;4.07;3.67;;;18.60;99.90;;;;;;4980056;28;20226;-80
2021/08/21 00:18:05;;;;;;;4.07;3.77;;;18.50;99.90;;;;;;4980492;28;20235;-80
2021/08/21 00:20:32;;;;;;;4.00;3.70;;;18.50;99.90;;;;;;4980909;28;20256;-80
2021/08/21 00:22:57;;;;;;;4.27;3.97;;;18.50;99.90;;;;;;4962049;28;20659;-80
2021/08/21 00:25:23;;;;;;;4.40;4.00;;;18.40;99.90;;;;;;4977822;28;20172;-79
2021/08/21 00:27:48;;;;;;;4.87;4.07;;;18.40;99.90;;;;;;4988399;23;20252;-83
2021/08/21 00:30:15;;;;;;;4.40;3.70;;;18.40;99.90;;;;;;4980091;28;20184;-83
2021/08/21 00:32:40;;;;;;;4.97;4.03;;;18.40;99.90;;;;;;4962921;28;20178;-83
2021/08/21 00:35:08;;;;;;;3.87;3.57;;;18.30;99.90;;;;;;4980662;28;20165;-83
2021/08/21 00:37:33;;;;;;;4.30;3.87;;;18.30;99.90;;;;;;4962977;28;20759;-83
2021/08/21 00:39:59;;;;;;;4.13;3.83;;;18.30;99.90;;;;;;4963711;28;20180;-83
2021/08/21 00:42:25;;;;;;;4.53;4.13;;;18.20;99.90;;;;;;4962414;28;20181;-83
2021/08/21 00:44:51;;;;;;;4.30;3.90;;;18.30;99.90;;;;;;4963196;28;20200;-83
2021/08/21 00:47:18;;;;;;;4.77;4.27;;;18.20;99.90;;;;;;4980784;28;20283;-83
2021/08/21 00:49:52;;;;;;;6.03;4.03;;;18.20;99.90;;;;;;4981158;28;20255;-83
2021/08/21 00:52:20;;;;;;;4.33;3.93;;;18.20;99.90;;;;;;4963253;28;20239;-83
2021/08/21 00:54:46;;;;;;;3.83;3.53;;;18.20;99.90;;;;;;4963209;28;20267;-83
2021/08/21 00:57:14;;;;;;;6.87;3.80;;;18.10;99.90;;;;;;4962906;28;20204;-82
2021/08/21 00:59:41;;;;;;;4.13;3.73;;;18.10;99.90;;;;;;4963158;28;20200;-82
2021/08/21 01:02:11;;;;;;;3.90;3.60;;;18.10;99.90;;;;;;4963128;28;20667;-83
2021/08/21 01:04:39;;;;;;;4.77;4.00;;;18.10;99.90;;;;;;4962864;28;20516;-83
2021/08/21 01:07:15;;;;;;;4.37;3.97;;;18.10;99.90;;;;;;4963544;28;20571;-83
2021/08/21 01:09:42;;;;;;;4.40;4.10;;;18.10;99.90;;;;;;4979577;28;20500;-83
2021/08/21 01:12:11;;;;;;;4.03;3.53;;;18.10;99.90;;;;;;4979856;28;20258;-83
2021/08/21 01:14:36;;;;;;;3.57;3.27;;;18.00;99.90;;;;;;4962717;28;20204;-83
2021/08/21 01:17:04;;;;;;;3.80;3.50;;;18.00;99.90;;;;;;4983402;28;20208;-83
2021/08/21 01:19:36;;;;;;;4.40;4.07;;;17.90;99.90;;;;;;4983273;28;20180;-83
2021/08/21 01:22:03;;;;;;;4.27;3.87;;;17.90;99.90;;;;;;4966296;28;20636;-83
2021/08/21 01:24:29;;;;;;;4.87;4.47;;;17.70;99.90;;;;;;4984985;28;20176;-82
2021/08/21 01:26:55;;;;;;;4.37;3.77;;;17.70;99.90;;;;;;4966192;28;20212;-83
2021/08/21 01:29:21;;;;;;;4.97;4.23;;;17.50;99.90;;;;;;4983516;28;20173;-82
2021/08/21 01:31:48;;;;;;;4.13;3.83;;;17.40;99.90;;;;;;4983963;28;20595;-82
2021/08/21 01:34:14;;;;;;;3.70;3.40;;;17.30;99.90;;;;;;4981728;28;20184;-83
2021/08/21 01:36:48;;;;;;;5.87;3.80;;;17.40;99.90;;;;;;4964115;28;20565;-83
2021/08/21 01:39:14;;;;;;;5.10;4.60;;;17.50;99.90;;;;;;4965188;28;20215;-83
2021/08/21 01:41:42;;;;;;;4.23;3.93;;;17.50;99.90;;;;;;4965106;28;20208;-83
2021/08/21 01:44:08;;;;;;;4.50;3.93;;;17.50;99.90;;;;;;4982234;28;20176;-83
2021/08/21 01:46:34;;;;;;;4.47;4.03;;;17.40;99.90;;;;;;4982383;28;20165;-83
2021/08/21 01:49:07;;;;;;;3.73;3.43;;;17.50;99.90;;;;;;4982788;28;20627;-83
2021/08/21 01:51:33;;;;;;;4.37;3.97;;;17.50;99.90;;;;;;4984972;28;20228;-83
2021/08/21 01:53:59;;;;;;;4.17;3.77;;;17.50;99.90;;;;;;4982507;28;20168;-82
2021/08/21 01:56:28;;;;;;;4.63;4.07;;;17.50;99.90;;;;;;4982205;28;20245;-83
2021/08/21 01:58:54;;;;;;;4.50;4.10;;;17.30;99.90;;;;;;4980250;28;20177;-83
2021/08/21 02:01:20;;;;;;;4.87;4.47;;;17.30;99.90;;;;;;4982854;28;20259;-83
2021/08/21 02:03:46;;;;;;;5.23;4.83;;;17.30;99.90;;;;;;4982551;28;20202;-83
2021/08/21 02:06:15;;;;;;;6.17;4.33;;;17.20;99.90;;;;;;4981594;28;20177;-83
2021/08/21 02:08:41;;;;;;;5.77;4.43;;;17.20;99.90;;;;;;4982444;28;20181;-83
2021/08/21 02:11:07;;;;;;;4.80;4.40;;;17.20;99.90;;;;;;4981752;28;20216;-83
2021/08/21 02:13:34;;;;;;;4.20;3.90;;;17.20;99.90;;;;;;4982022;28;20179;-83
2021/08/21 02:15:59;;;;;;;4.50;4.13;;;17.30;99.90;;;;;;4983312;28;20215;-83
2021/08/21 02:18:25;;;;;;;5.00;3.80;;;17.30;99.90;;;;;;4981414;28;20208;-83
2021/08/21 02:20:51;;;;;;;4.33;3.93;;;17.30;99.90;;;;;;4982661;28;20181;-83
2021/08/21 02:23:16;;;;;;;4.10;3.70;;;17.20;99.90;;;;;;4981479;28;20200;-83
2021/08/21 02:25:42;;;;;;;5.50;4.00;;;17.20;99.90;;;;;;4981204;28;20177;-83
2021/08/21 02:28:09;;;;;;;4.73;4.37;;;17.10;99.90;;;;;;4943018;28;1123839;-83
2021/08/21 02:30:41;;;;;;;4.67;4.27;;;17.10;99.90;;;;;;4982744;28;20523;-83
2021/08/21 02:33:06;;;;;;;4.83;4.43;;;17.10;99.90;;;;;;4983233;28;20264;-82
2021/08/21 02:35:33;;;;;;;4.83;4.30;;;17.10;99.90;;;;;;4983828;28;20204;-83
2021/08/21 02:37:59;;;;;;;4.40;4.00;;;17.10;99.90;;;;;;4982424;28;20204;-83
2021/08/21 02:40:25;;;;;;;4.80;4.40;;;17.00;99.90;;;;;;4982296;28;20206;-83
2021/08/21 02:42:51;;;;;;;4.93;4.10;;;17.10;99.90;;;;;;4981965;28;20206;-82
2021/08/21 02:45:20;;;;;;;4.37;4.07;;;17.00;99.90;;;;;;4982518;28;20171;-83
2021/08/21 02:47:46;;;;;;;6.13;4.23;;;17.00;99.90;;;;;;4982895;28;20210;-83
2021/08/21 02:50:12;;;;;;;5.10;4.70;;;17.00;99.90;;;;;;4982989;28;20259;-83
2021/08/21 02:52:37;;;;;;;3.83;3.30;;;17.00;99.90;;;;;;4981392;28;20191;-82
2021/08/21 02:55:03;;;;;;;7.10;4.10;;;17.00;99.90;;;;;;4980300;28;20181;-82
2021/08/21 02:57:29;;;;;;;5.10;4.70;;;17.00;99.90;;;;;;4981511;28;20207;-82
2021/08/21 02:59:54;;;;;;;4.77;4.27;;;16.90;99.90;;;;;;4981177;28;20173;-83
2021/08/21 03:02:20;;;;;;;4.33;4.03;;;16.80;99.90;;;;;;4981844;28;20184;-83
2021/08/21 03:04:46;;;;;;;5.10;4.70;;;16.80;99.90;;;;;;4981993;28;20173;-83
2021/08/21 03:07:11;;;;;;;4.70;4.27;;;16.80;99.90;;;;;;4981606;28;20287;-83
2021/08/21 03:09:37;;;;;;;4.20;3.90;;;16.80;99.90;;;;;;4980781;28;20176;-83
2021/08/21 03:12:03;;;;;;;4.30;3.93;;;16.80;99.90;;;;;;4982068;28;20204;-82
2021/08/21 03:14:29;;;;;;;3.93;3.63;;;16.70;99.90;;;;;;4981878;28;20232;-83
2021/08/21 03:16:54;;;;;;;4.97;4.17;;;16.70;99.90;;;;;;4981468;28;20557;-83
2021/08/21 03:19:20;;;;;;;4.20;3.80;;;16.70;99.90;;;;;;4982861;28;20173;-83
2021/08/21 03:21:46;;;;;;;4.20;3.70;;;16.60;99.90;;;;;;4982644;28;20330;-82
2021/08/21 03:24:11;;;;;;;5.80;3.87;;;16.60;99.90;;;;;;4981062;28;20184;-83
2021/08/21 03:26:37;;;;;;;4.10;3.80;;;16.60;99.90;;;;;;4980821;28;20215;-83
2021/08/21 03:29:03;;;;;;;4.63;4.23;;;16.50;99.90;;;;;;4980870;28;20168;-82
2021/08/21 03:31:29;;;;;;;4.77;4.37;;;16.50;99.90;;;;;;4981806;28;20248;-81
2021/08/21 03:33:56;;;;;;;7.33;3.90;;;16.50;99.90;;;;;;4981739;28;20191;-83
2021/08/21 03:36:21;;;;;;;7.23;4.57;;;16.50;99.90;;;;;;4981223;28;20196;-82
2021/08/21 03:38:50;;;;;;;5.27;3.90;;;16.50;99.90;;;;;;4980635;28;20215;-81
2021/08/21 03:41:16;;;;;;;4.80;4.40;;;16.40;99.90;;;;;;4980971;28;20172;-82
2021/08/21 03:43:41;;;;;;;4.27;3.90;;;16.40;99.90;;;;;;4980871;28;20698;-82
2021/08/21 03:46:07;;;;;;;4.73;4.10;;;16.40;99.90;;;;;;4983567;28;20175;-82
2021/08/21 03:48:33;;;;;;;4.73;4.27;;;16.40;99.90;;;;;;4980521;28;20191;-82
2021/08/21 03:50:58;;;;;;;5.03;4.60;;;16.30;99.90;;;;;;4981568;28;20656;-82
2021/08/21 03:53:24;;;;;;;5.73;5.00;;;16.20;99.90;;;;;;4980546;28;20623;-82
2021/08/21 03:55:50;;;;;;;4.77;4.27;;;16.20;99.90;;;;;;4982104;28;20206;-82
2021/08/21 03:58:19;;;;;;;5.50;5.00;;;16.20;99.90;;;;;;4980634;28;20197;-82
2021/08/21 04:00:45;;;;;;;4.87;4.47;;;16.20;99.90;;;;;;4980236;28;20588;-82
2021/08/21 04:03:11;;;;;;;5.03;4.63;;;16.30;99.90;;;;;;4981267;28;20173;-82
2021/08/21 04:05:36;;;;;;;5.93;4.40;;;16.30;99.90;;;;;;4981797;28;20519;-82
2021/08/21 04:08:03;;;;;;;5.83;4.67;;;16.30;99.90;;;;;;4980379;28;20194;-82
2021/08/21 04:10:28;;;;;;;7.03;4.37;;;16.30;99.90;;;;;;4981788;28;20173;-82
2021/08/21 04:12:54;;;;;;;5.07;4.63;;;16.30;99.90;;;;;;4981470;28;20176;-82
2021/08/21 04:15:20;;;;;;;5.53;4.83;;;16.30;99.90;;;;;;4978509;28;20640;-82
2021/08/21 04:17:45;;;;;;;5.40;4.90;;;16.30;99.90;;;;;;4980450;28;20207;-82
2021/08/21 04:20:12;;;;;;;5.30;4.63;;;16.20;99.90;;;;;;4980597;28;20183;-82
2021/08/21 04:22:37;;;;;;;4.70;4.30;;;16.20;99.90;;;;;;4980554;28;20267;-82
2021/08/21 04:25:04;;;;;;;4.83;4.03;;;16.20;99.90;;;;;;4980953;28;20200;-83
2021/08/21 04:27:30;;;;;;;4.43;4.13;;;16.20;99.90;;;;;;4982051;28;20204;-82
2021/08/21 04:29:55;;;;;;;5.20;4.30;;;16.20;99.90;;;;;;4981437;28;20176;-82
2021/08/21 04:32:21;;;;;;;5.73;4.53;;;16.10;99.90;;;;;;4980554;28;20643;-82
2021/08/21 04:34:47;;;;;;;4.30;4.00;;;16.00;99.90;;;;;;4980171;28;20239;-82
2021/08/21 04:37:13;;;;;;;4.37;3.97;;;16.00;99.90;;;;;;4980423;28;20200;-82
2021/08/21 04:39:38;;;;;;;5.03;4.50;;;16.00;99.90;;;;;;4980566;28;20242;-82
2021/08/21 04:42:04;;;;;;;5.13;4.53;;;16.00;99.90;;;;;;4980438;28;20172;-82
2021/08/21 04:44:30;;;;;;;4.73;4.43;;;16.00;99.90;;;;;;4978941;28;20634;-83
2021/08/21 04:46:56;;;;;;;5.00;4.60;;;16.10;99.90;;;;;;4981860;28;20199;-82
2021/08/21 04:49:21;;;;;;;4.93;4.53;;;16.00;99.90;;;;;;4980234;28;20520;-82
2021/08/21 04:51:47;;;;;;;5.33;4.07;;;16.00;99.90;;;;;;4984199;28;20183;-81
2021/08/21 04:54:13;;;;;;;4.63;4.23;;;16.00;99.90;;;;;;4984334;28;20223;-83
2021/08/21 04:56:38;;;;;;;4.97;4.30;;;16.00;99.90;;;;;;4984538;28;20200;-81
2021/08/21 04:59:04;;;;;;;5.13;4.77;;;16.00;99.90;;;;;;4984533;28;20183;-81
2021/08/21 05:01:30;;;;;;;5.07;4.57;;;15.90;99.90;;;;;;4985397;28;20606;-81
2021/08/21 05:03:55;;;;;;;4.40;4.00;;;15.80;99.90;;;;;;4983255;28;20176;-82
2021/08/21 05:06:21;;;;;;;4.67;4.27;;;15.90;99.90;;;;;;4984720;28;20182;-81
2021/08/21 05:08:46;;;;;;;5.23;4.50;;;15.80;99.90;;;;;;4981897;28;20193;-81
2021/08/21 05:11:12;;;;;;;6.73;4.00;;;15.90;99.90;;;;;;4982771;28;20189;-82
2021/08/21 05:13:38;;;;;;;5.43;4.50;;;15.90;99.90;;;;;;4982472;28;20234;-82
2021/08/21 05:16:04;;;;;;;5.03;4.50;;;15.90;99.90;;;;;;4982280;28;20187;-82
2021/08/21 05:18:34;;;;;;;7.00;4.50;;;15.90;99.90;;;;;;4982320;28;20232;-81
2021/08/21 05:21:07;;;;;;;8.63;4.33;;;15.90;99.90;;;;;;4983147;28;20170;-81
2021/08/21 05:23:40;;;;;;;6.43;4.87;;;16.00;99.90;;;;;;4982923;28;20207;-81
2021/08/21 05:26:07;;;;;;;6.20;5.20;;;16.00;99.90;;;;;;4982424;28;20231;-82
2021/08/21 05:28:34;;;;;;;4.83;4.40;;;15.90;99.90;;;;;;4981881;28;20255;-82
2021/08/21 05:31:00;;;;;;;5.23;4.77;;;15.90;99.90;;;;;;4982470;28;20188;-81
2021/08/21 05:33:27;;;;;;;4.90;4.50;;;15.80;99.90;;;;;;4981337;28;20643;-82
2021/08/21 05:35:54;;;;;;;5.30;4.90;;;15.80;99.90;;;;;;4982459;28;20190;-81
2021/08/21 05:38:20;;;;;;;4.97;4.57;;;15.70;99.90;;;;;;4982535;28;20200;-82
2021/08/21 05:40:46;;;;;;;5.40;4.90;;;15.80;99.90;;;;;;4984195;28;20209;-82
2021/08/21 05:43:12;;;;;;;5.60;5.10;;;15.80;99.90;;;;;;4983174;28;20607;-82
2021/08/21 05:45:38;;;;;;;7.77;4.97;;;15.90;99.90;;;;;;4982310;28;20227;-81
2021/08/21 05:48:04;;;;;;;5.67;4.93;;;16.00;99.90;;;;;;4981397;28;20203;-81
2021/08/21 05:50:29;;;;;;;5.20;4.80;;;16.10;99.90;;;;;;4989844;28;20181;-82
2021/08/21 05:52:55;;;;;;;5.80;5.00;;;16.20;99.90;;;;;;5001662;28;20183;-82
2021/08/21 05:55:21;;;;;;;6.67;4.90;;;16.30;99.90;;;;;;4983841;28;20192;-82
2021/08/21 05:57:46;;;;;;;5.30;4.90;;;16.30;99.90;;;;;;4983465;28;20307;-82
2021/08/21 06:00:13;;;;;;;6.13;5.07;;;16.30;99.90;;;;;;4983985;28;20181;-82
2021/08/21 06:02:39;;;;;;;5.47;5.00;;;16.20;99.90;;;;;;4982801;28;20202;-82
2021/08/21 06:05:05;;;;;;;6.47;5.00;;;16.20;99.90;;;;;;5001329;28;20172;-81
2021/08/21 06:07:31;;;;;;;5.40;4.90;;;16.20;99.90;;;;;;5001739;28;20625;-82
2021/08/21 06:09:57;;;;;;;6.27;5.20;;;16.30;99.90;;;;;;5000445;28;20279;-82
2021/08/21 06:12:22;;;;;;;5.70;5.20;;;16.50;99.90;;;;;;4982193;28;20177;-82
2021/08/21 06:14:48;;;;;;;5.67;5.00;;;16.60;99.90;;;;;;4982202;28;20267;-82
2021/08/21 06:17:13;;;;;;;5.77;5.23;;;16.60;99.90;;;;;;4981936;28;20615;-82
2021/08/21 06:19:39;;;;;;;5.60;4.93;;;16.70;99.90;;;;;;4983128;28;20186;-82
2021/08/21 06:22:06;;;;;;;6.97;5.37;;;16.80;99.90;;;;;;4982110;28;20178;-83
2021/08/21 06:24:32;;;;;;;7.53;5.37;;;16.90;99.90;;;;;;4982260;28;20171;-82
2021/08/21 06:29:26;;;;;;;6.03;5.47;;;17.10;99.90;;;;;;4981997;28;20213;-82
2021/08/21 06:31:51;;;;;;;10.87;4.97;;;17.10;99.90;;;;;;4982826;28;20223;-82
2021/08/21 06:34:18;;;;;;;5.83;5.33;;;17.20;99.90;;;;;;4982796;28;20169;-83
2021/08/21 06:36:44;;;;;;;10.07;5.27;;;17.20;99.90;;;;;;4965952;28;20180;-83
2021/08/21 06:39:09;;;;;;;4.90;4.27;;;17.30;99.90;;;;;;4983036;28;20662;-82
2021/08/21 06:41:35;;;;;;;5.87;5.27;;;17.40;99.90;;;;;;4982783;28;20283;-83
2021/08/21 06:44:01;;;;;;;5.07;4.40;;;17.40;99.90;;;;;;4982493;28;20181;-83
2021/08/21 06:46:27;;;;;;;6.20;5.37;;;17.40;99.90;;;;;;4984242;28;20172;-83
2021/08/21 06:48:52;;;;;;;7.10;4.67;;;17.50;99.90;;;;;;4983080;28;20243;-83
2021/08/21 06:51:18;;;;;;;5.70;5.20;;;17.50;99.90;;;;;;4982834;28;20762;-83
2021/08/21 06:53:43;;;;;;;7.97;5.03;;;17.50;99.90;;;;;;4981888;28;20206;-83
2021/08/21 06:56:09;;;;;;;6.60;4.67;;;17.60;99.90;;;;;;4965563;28;20184;-83
2021/08/21 06:58:35;;;;;;;6.10;5.50;;;17.70;99.90;;;;;;4982036;28;20208;-83
2021/08/21 07:01:00;;;;;;;7.20;6.17;;;17.70;99.90;;;;;;4981093;28;20176;-83
2021/08/21 07:03:26;;;;;;;6.13;5.30;;;17.80;99.90;;;;;;4982302;28;20255;-83
2021/08/21 07:05:51;;;;;;;6.27;5.57;;;17.90;99.90;;;;;;4982368;28;20177;-83
2021/08/21 07:08:17;;;;;;;6.13;5.63;;;17.90;99.90;;;;;;4982687;28;20196;-83
2021/08/21 07:10:43;;;;;;;5.80;5.27;;;17.90;99.90;;;;;;4982789;28;20231;-83
2021/08/21 07:13:09;;;;;;;5.90;5.07;;;17.90;99.90;;;;;;4982048;28;20566;-83
2021/08/21 07:15:35;;;;;;;5.63;5.13;;;17.90;99.90;;;;;;4981967;28;20184;-82
2021/08/21 07:18:00;;;;;;;7.80;5.73;;;18.00;99.90;;;;;;4981987;28;20216;-83
2021/08/21 07:20:26;;;;;;;6.70;5.37;;;18.10;99.90;;;;;;4982636;28;20176;-83
2021/08/21 07:22:52;;;;;;;8.90;5.70;;;18.20;99.90;;;;;;4982423;28;20173;-82
2021/08/21 07:25:18;;;;;;;7.33;5.63;;;18.20;99.90;;;;;;4983186;28;20215;-83
2021/08/21 07:27:43;;;;;;;6.07;5.50;;;18.30;99.90;;;;;;4980595;28;20229;-83
2021/08/21 07:30:09;;;;;;;5.90;5.40;;;18.20;99.90;;;;;;4983481;28;20177;-83
2021/08/21 07:32:35;;;;;;;8.80;6.20;;;18.30;99.90;;;;;;4982365;28;20195;-83
2021/08/21 07:35:04;;;;;;;8.50;6.07;;;18.30;99.90;;;;;;4982857;28;20679;-83
2021/08/21 07:37:31;;;;;;;6.47;5.87;;;18.40;99.90;;;;;;4981674;28;20659;-83
2021/08/21 07:39:57;;;;;;;5.90;5.40;;;18.50;99.90;;;;;;4981301;28;20212;-83
2021/08/21 07:42:23;;;;;;;6.03;5.50;;;18.50;99.90;;;;;;4982453;28;20168;-83
2021/08/21 07:44:48;;;;;;;5.80;5.30;;;18.60;99.90;;;;;;4966040;28;20180;-83
2021/08/21 07:47:14;;;;;;;5.67;5.17;;;18.70;99.90;;;;;;4981456;28;20196;-83
2021/08/21 07:49:40;;;;;;;6.33;5.73;;;18.70;99.90;;;;;;4980564;28;20187;-83
2021/08/21 07:52:06;;;;;;;5.80;5.23;;;18.80;99.90;;;;;;4982981;28;20172;-83
2021/08/21 07:54:32;;;;;;;6.33;5.63;;;18.80;99.90;;;;;;4965650;28;20263;-83
2021/08/21 07:56:57;;;;;;;6.60;6.10;;;18.80;99.90;;;;;;4967016;28;20223;-83
2021/08/21 07:59:23;;;;;;;6.07;5.57;;;18.90;99.90;;;;;;4981839;28;20224;-83
2021/08/21 08:01:49;;;;;;;9.20;5.50;;;19.00;99.90;;;;;;4981510;28;20169;-83
2021/08/21 08:04:14;;;;;;;6.90;6.20;;;19.10;99.90;;;;;;4984606;28;20168;-83
2021/08/21 08:06:40;;;;;;;6.13;5.63;;;19.20;99.90;;;;;;4983452;28;20265;-83
2021/08/21 08:09:06;;;;;;;6.70;6.20;;;19.40;99.90;;;;;;4982289;28;20263;-83
2021/08/21 08:11:31;;;;;;;7.20;6.60;;;19.50;99.90;;;;;;4981547;28;20578;-83
2021/08/21 08:13:57;;;;;;;6.40;5.90;;;19.50;99.90;;;;;;4963998;28;20667;-83
2021/08/21 08:16:23;;;;;;;7.93;6.83;;;19.60;99.90;;;;;;4982131;28;20648;-83
2021/08/21 08:18:48;;;;;;;7.40;6.70;;;19.60;99.90;;;;;;4966642;28;20267;-83
2021/08/21 08:21:18;;;;;;;7.03;6.47;;;19.60;99.90;;;;;;4964716;28;20183;-82
2021/08/21 08:23:44;;;;;;;8.33;7.23;;;19.60;99.90;;;;;;4964638;28;20216;-82
2021/08/21 08:26:09;;;;;;;9.10;6.87;;;19.70;99.90;;;;;;4963182;28;20180;-82
2021/08/21 08:28:35;;;;;;;8.30;7.50;;;19.80;99.90;;;;;;4981032;28;20211;-83
2021/08/21 08:31:01;;;;;;;6.97;6.37;;;19.90;99.90;;;;;;4981514;28;20181;-82
2021/08/21 08:33:26;;;;;;;9.33;7.27;;;19.90;99.90;;;;;;4981812;28;20180;-82
2021/08/21 08:35:52;;;;;;;8.67;7.63;;;20.00;99.90;;;;;;4981698;28;20187;-82
2021/08/21 08:38:19;;;;;;;10.27;7.57;;;20.00;99.90;;;;;;4981181;28;20204;-82
2021/08/21 08:40:46;;;;;;;8.17;6.30;;;20.10;99.90;;;;;;4981379;28;20183;-83
2021/08/21 08:43:12;;;;;;;7.90;6.77;;;20.30;99.90;;;;;;4979307;28;20180;-82
2021/08/21 08:45:37;;;;;;;7.70;6.90;;;20.50;99.90;;;;;;4979887;28;20176;-83
2021/08/21 08:48:04;;;;;;;6.90;6.27;;;20.50;99.90;;;;;;4980041;28;20203;-83
2021/08/21 08:50:31;;;;;;;8.13;7.40;;;20.60;99.90;;;;;;4964460;28;20183;-83
2021/08/21 08:52:57;;;;;;;8.23;7.43;;;20.60;99.90;;;;;;4981890;28;20548;-83
2021/08/21 08:55:23;;;;;;;6.93;6.23;;;20.60;99.90;;;;;;4982317;28;20176;-83
2021/08/21 08:57:49;;;;;;;7.60;6.77;;;;;;;;;;4964176;28;20242;-84
2021/08/21 09:00:26;;;;;;;7.87;7.17;;;20.80;99.90;;;;;;4965017;28;20207;-84
2021/08/21 09:02:54;;;;;;;7.63;7.03;;;21.00;99.90;;;;;;4981990;28;20156;-83
2021/08/21 09:05:21;;;;;;;8.33;7.37;;;21.10;99.90;;;;;;4964123;28;20643;-83
2021/08/21 09:07:52;;;;;;;8.17;7.37;;;21.10;99.90;;;;;;4981732;28;20196;-83
2021/08/21 09:10:31;;;;;;;7.83;7.23;;;21.10;99.90;;;;;;4981806;28;20192;-83
2021/08/21 09:13:07;;;;;;;8.83;7.83;;;21.20;99.90;;;;;;4981255;28;20591;-83
2021/08/21 09:15:38;;;;;;;8.37;7.57;;;21.10;99.90;;;;;;4986632;28;20173;-83
2021/08/21 09:18:07;;;;;;;9.00;7.03;;;21.10;99.90;;;;;;4981849;28;20209;-83
2021/08/21 09:20:49;;;;;;;8.90;8.20;;;21.10;99.90;;;;;;4980906;28;20200;-83
2021/08/21 09:23:16;;;;;;;8.63;7.83;;;21.20;99.90;;;;;;4963915;28;20212;-83
2021/08/21 09:25:42;;;;;;;7.70;7.00;;;21.50;99.90;;;;;;4964118;28;20187;-83
2021/08/21 09:28:35;;;;;;;11.63;8.03;;;21.60;99.90;;;;;;4964095;28;20226;-83
2021/08/21 09:31:36;;;;;;;8.77;7.70;;;21.80;99.90;;;;;;4961528;28;20216;-83
2021/08/21 09:34:06;;;;;;;8.80;7.67;;;21.80;99.90;;;;;;4953293;28;20259;-83
2021/08/21 09:36:37;;;;;;;8.30;7.53;;;22.00;99.90;;;;;;4983061;28;20184;-83
2021/08/21 09:39:08;;;;;;;12.10;7.03;;;22.20;99.90;;;;;;4967202;28;20219;-83
2021/08/21 09:41:55;;;;;;;8.00;7.20;;;22.30;99.90;;;;;;4968125;28;20608;-83
2021/08/21 09:44:30;;;;;;;7.40;6.80;;;22.50;99.90;;;;;;4985950;28;20188;-83
2021/08/21 09:47:11;;;;;;;8.17;7.40;;;22.70;99.90;;;;;;4986268;28;20211;-84
2021/08/21 09:49:37;;;;;;;7.50;6.90;;;22.60;99.90;;;;;;4984215;28;20677;-83
2021/08/21 09:52:10;;;;;;;7.50;6.77;;;22.70;99.90;;;;;;4984312;28;20181;-83
2021/08/21 09:54:36;;;;;;;9.33;7.23;;;22.80;99.90;;;;;;4985136;28;20185;-83
2021/08/21 09:57:02;;;;;;;8.97;8.00;;;23.10;99.90;;;;;;4966443;28;20207;-84
2021/08/21 09:59:42;;;;;;;7.93;7.23;;;23.10;99.90;;;;;;4984784;28;20172;-83
2021/08/21 10:02:10;;;;;;;8.10;6.57;;;23.10;99.90;;;;;;4984417;28;20167;-83
2021/08/21 10:04:38;;;;;;;6.53;5.93;;;23.10;99.90;;;;;;4984639;28;20649;-84
2021/08/21 10:07:05;;;;;;;8.67;7.87;;;23.30;99.90;;;;;;4967243;28;20180;-83
2021/08/21 10:09:33;;;;;;;8.87;8.07;;;23.40;99.90;;;;;;4985021;28;20242;-83
2021/08/21 10:11:59;;;;;;;8.00;7.20;;;23.50;99.90;;;;;;4984824;28;20230;-85
2021/08/21 10:14:25;;;;;;;7.83;7.13;;;23.70;99.90;;;;;;4967079;28;20176;-83
2021/08/21 10:16:51;;;;;;;7.30;6.57;;;23.70;99.90;;;;;;4983461;28;20551;-84
2021/08/21 10:19:18;;;;;;;8.83;7.93;;;23.70;99.90;;;;;;4984756;28;20172;-84
2021/08/21 10:21:57;;;;;;;10.63;8.13;;;23.80;99.90;;;;;;4984709;28;20176;-83
2021/08/21 10:24:36;;;;;;;9.47;8.20;;;23.90;99.90;;;;;;4984743;28;20566;-84
2021/08/21 10:27:42;;;;;;;8.23;7.43;;;23.80;99.90;;;;;;4984126;28;20180;-84
2021/08/21 10:30:20;;;;;;;10.27;7.07;;;23.70;99.90;;;;;;4966447;29;20169;-83
2021/08/21 10:33:01;;;;;;;7.93;7.13;;;23.80;99.90;;;;;;4964902;29;20153;-84
2021/08/21 10:35:59;;;;;;;7.50;6.90;;;23.90;99.90;;;;;;4947743;29;20177;-84
2021/08/21 10:38:33;;;;;;;7.70;7.00;;;24.20;99.90;;;;;;4943638;29;20244;-84
2021/08/21 10:41:07;;;;;;;9.87;6.63;;;24.30;99.90;;;;;;4965223;29;20183;-84
2021/08/21 10:43:44;;;;;;;8.73;6.70;;;24.40;99.90;;;;;;4964132;29;20171;-84
2021/08/21 10:46:11;;;;;;;7.23;6.63;;;24.50;99.90;;;;;;4963910;29;20180;-84
2021/08/21 10:48:37;;;;;;;7.37;6.43;;;24.60;99.90;;;;;;4964778;28;20201;-84
2021/08/21 10:51:38;;;;;;;7.77;6.83;;;25.20;99.90;;;;;;4965160;29;20173;-84
2021/08/21 10:54:18;;;;;;;7.37;6.70;;;24.80;99.90;;;;;;4961726;29;20212;-84
2021/08/21 10:56:45;;;;;;;7.80;7.10;;;24.80;99.90;;;;;;4964443;29;20211;-83
2021/08/21 10:59:11;;;;;;;7.93;7.17;;;24.80;99.90;;;;;;4964667;28;20212;-83
2021/08/21 11:01:37;;;;;;;8.97;7.20;;;24.90;99.90;;;;;;4948219;29;20180;-84
2021/08/21 11:04:03;;;;;;;7.07;6.47;;;;;;;;;;4948725;29;20193;-83
2021/08/21 11:06:31;;;;;;;7.57;6.67;;;25.20;99.90;;;;;;4963516;29;20170;-83
2021/08/21 11:09:11;;;;;;;7.30;6.53;;;25.30;99.90;;;;;;4965230;28;20279;-84
2021/08/21 11:11:47;;;;;;;6.40;5.90;;;25.30;99.90;;;;;;4965948;29;20163;-84
2021/08/21 11:14:24;;;;;;;6.80;6.10;;;25.60;99.90;;;;;;4964996;29;20271;-84
2021/08/21 11:17:00;;;;;;;7.90;6.10;;;25.70;99.90;;;;;;4947189;29;20176;-83
2021/08/21 11:19:45;;;;;;;7.03;5.83;;;25.80;99.90;;;;;;4964039;29;20180;-83
2021/08/21 11:22:24;;;;;;;6.40;5.70;;;25.80;99.90;;;;;;4966046;29;20157;-83
2021/08/21 11:24:52;;;;;;;6.23;5.70;;;25.90;99.90;;;;;;4963797;29;20695;-83
2021/08/21 11:27:24;;;;;;;5.93;5.40;;;25.80;99.90;;;;;;4963025;28;20205;-83
2021/08/21 11:30:21;;;;;;;6.90;5.47;;;26.00;99.90;;;;;;4963920;29;20180;-83
2021/08/21 11:33:07;;;;;;;5.33;4.83;;;26.10;99.90;;;;;;4963065;29;20173;-83
2021/08/21 11:35:49;;;;;;;4.90;4.50;;;26.30;99.90;;;;;;4965081;29;20165;-83
2021/08/21 11:38:26;;;;;;;4.47;4.07;;;26.30;99.90;;;;;;4949040;29;20223;-83
2021/08/21 11:40:53;;;;;;;4.30;4.00;;;26.30;99.90;;;;;;4949779;29;20189;-83
2021/08/21 11:43:28;;;;;;;4.97;4.57;;;26.60;99.90;;;;;;4966223;29;20165;-84
2021/08/21 11:45:55;;;;;;;4.43;4.03;;;26.60;99.90;;;;;;4965908;29;20695;-83
2021/08/21 11:48:29;;;;;;;4.50;4.10;;;26.60;99.90;;;;;;4965913;28;20197;-83
2021/08/21 11:50:56;;;;;;;4.87;4.37;;;26.60;99.90;;;;;;4948921;29;20625;-84
2021/08/21 11:53:31;;;;;;;6.40;4.00;;;26.90;99.90;;;;;;4967210;29;20169;-84
2021/08/21 11:56:00;;;;;;;4.60;4.30;;;26.90;99.90;;;;;;4966424;29;20153;-84
2021/08/21 11:58:36;;;;;;;4.87;3.63;;;27.00;99.90;;;;;;4982221;28;20235;-84
2021/08/21 12:01:14;;;;;;;4.67;4.27;;;27.00;99.90;;;;;;4984002;28;20713;-84
2021/08/21 12:06:26;;;;;;;4.80;4.40;;;27.30;99.90;;;;;;4984827;28;20156;-84
2021/08/21 12:09:05;;;;;;;4.03;3.57;;;27.50;99.90;;;;;;4983950;28;20196;-84
2021/08/21 12:11:30;;;;;;;4.23;3.83;;;27.50;99.90;;;;;;4983018;28;20620;-84
2021/08/21 12:13:59;;;;;;;4.07;3.77;;;27.70;99.90;;;;;;4983973;28;20183;-84
2021/08/21 12:16:29;;;;;;;4.80;4.23;;;27.70;99.90;;;;;;4966601;28;20180;-84
2021/08/21 12:18:56;;;;;;;4.67;4.10;;;27.60;99.90;;;;;;4983417;28;20211;-84
2021/08/21 12:21:23;;;;;;;4.30;3.60;;;27.30;99.90;;;;;;4983333;28;20183;-84
2021/08/21 12:23:51;;;;;;;4.30;3.90;;;27.50;99.90;;;;;;4983898;28;20212;-84
2021/08/21 12:26:37;;;;;;;5.57;3.70;;;27.50;99.90;;;;;;4983388;28;20573;-84
2021/08/21 12:29:05;;;;;;;4.00;3.60;;;27.60;99.90;;;;;;5024400;23;20235;-84
2021/08/21 12:31:36;;;;;;;4.03;3.50;;;27.70;99.90;;;;;;4983478;28;20201;-84
2021/08/21 12:34:02;;;;;;;4.40;4.00;;;27.70;99.90;;;;;;5000607;28;20635;-85
2021/08/21 12:36:28;;;;;;;4.37;3.67;;;27.80;99.90;;;;;;4999499;28;20208;-85
2021/08/21 12:39:13;;;;;;;4.10;3.70;;;28.00;99.90;;;;;;5000702;28;20222;-85
2021/08/21 12:41:55;;;;;;;5.17;3.83;;;28.10;99.90;;;;;;4999916;28;20163;-84
2021/08/21 12:44:30;;;;;;;4.03;3.73;;;28.00;99.90;;;;;;5001735;28;20171;-85
2021/08/21 12:46:55;;;;;;;6.00;3.87;;;28.10;99.90;;;;;;5000666;28;20171;-84
2021/08/21 12:49:44;;;;;;;4.10;3.70;;;28.20;99.90;;;;;;5008191;28;20250;-81
2021/08/21 12:52:18;;;;;;;4.20;3.80;;;28.20;99.90;;;;;;5009598;28;20207;-81
2021/08/21 12:54:46;;;;;;;3.93;3.63;;;28.10;99.90;;;;;;5007438;28;20214;-81
2021/08/21 12:57:16;;;;;;;3.70;3.40;;;28.20;99.90;;;;;;5007893;28;20192;-81
2021/08/21 12:59:44;;;;;;;3.77;3.30;;;28.20;99.90;;;;;;5009155;28;20191;-81